createdAt,value
2018-08-19T00:00:16.847Z,99130.36
2018-08-19T00:01:52.384Z,99132.58
2018-08-19T00:03:27.703Z,99153.03
2018-08-19T00:05:16.825Z,99130.52
2018-08-19T00:06:52.679Z,99126.94
2018-08-19T00:08:28.369Z,99127.92
2018-08-19T00:10:03.721Z,99167.28
2018-08-19T00:11:39.015Z,99148.72
2018-08-19T00:13:16.596Z,99168.27
2018-08-19T00:14:52.301Z,99158.08
2018-08-19T00:16:28.463Z,99140.83
2018-08-19T00:18:03.802Z,99063.97
2018-08-19T00:19:44.536Z,98904.86
2018-08-19T00:21:23.108Z,98744.23
2018-08-19T00:22:58.602Z,98663.47
2018-08-19T00:24:34.080Z,98705.58
2018-08-19T00:26:10.893Z,98728.78
2018-08-19T00:27:47.239Z,98745.59
2018-08-19T00:29:28.163Z,98778.25
2018-08-19T00:31:06.733Z,98823.69
2018-08-19T00:32:42.410Z,98857.34
2018-08-19T00:34:21.689Z,98880.69
2018-08-19T00:35:57.474Z,98922.70
2018-08-19T00:37:32.726Z,98903.41
2018-08-19T00:39:10.185Z,98811.53
2018-08-19T00:40:45.809Z,98804.04
2018-08-19T00:42:21.124Z,98838.92
2018-08-19T00:43:56.417Z,98876.38
2018-08-19T00:45:33.940Z,98945.80
2018-08-19T00:47:10.346Z,98943.09
2018-08-19T00:48:46.370Z,98908.81
2018-08-19T00:50:24.362Z,98726.47
2018-08-19T00:52:02.884Z,98530.30
2018-08-19T00:53:38.326Z,98437.88
2018-08-19T00:55:13.684Z,98345.73
2018-08-19T00:56:51.987Z,98350.13
2018-08-19T00:58:27.431Z,98338.02
2018-08-19T01:00:06.430Z,98261.36
2018-08-19T01:01:53.406Z,98269.45
2018-08-19T01:03:29.262Z,98254.53
2018-08-19T01:05:07.859Z,98199.09
2018-08-19T01:06:50.550Z,98198.27
2018-08-19T01:08:26.499Z,98237.91
2018-08-19T01:10:03.432Z,98275.59
2018-08-19T01:11:42.752Z,98312.58
2018-08-19T01:13:19.408Z,98378.48
2018-08-19T01:14:55.917Z,98448.19
2018-08-19T01:16:33.381Z,98487.77
2018-08-19T01:18:10.033Z,98539.50
2018-08-19T01:19:46.048Z,98571.52
2018-08-19T01:21:21.644Z,98613.08
2018-08-19T01:22:57.448Z,98691.11
2018-08-19T01:24:33.064Z,98802.34
2018-08-19T01:26:10.499Z,98816.48
2018-08-19T01:27:46.001Z,98832.92
2018-08-19T01:29:35.017Z,98885.38
2018-08-19T01:31:10.485Z,98897.77
2018-08-19T01:32:46.653Z,98957.98
2018-08-19T01:34:22.243Z,98974.69
2018-08-19T01:35:57.523Z,99001.73
2018-08-19T01:37:33.362Z,99014.54
2018-08-19T01:39:13.222Z,99031.37
2018-08-19T01:40:50.971Z,99027.31
2018-08-19T01:42:26.391Z,98999.18
2018-08-19T01:44:10.976Z,98971.88
2018-08-19T01:45:46.535Z,98972.25
2018-08-19T01:47:24.455Z,98958.63
2018-08-19T01:49:00.326Z,98911.66
2018-08-19T01:50:37.078Z,98901.23
2018-08-19T01:52:12.950Z,98860.59
2018-08-19T01:53:48.490Z,98810.35
2018-08-19T01:55:23.717Z,98833.80
2018-08-19T01:57:01.979Z,98831.59
2018-08-19T01:58:42.122Z,98820.06
2018-08-19T02:00:21.209Z,98797.59
2018-08-19T02:02:04.922Z,98761.12
2018-08-19T02:03:40.388Z,98810.10
2018-08-19T02:05:16.317Z,98803.98
2018-08-19T02:06:52.610Z,98755.00
2018-08-19T02:08:28.229Z,98756.72
2018-08-19T02:10:06.681Z,98730.67
2018-08-19T02:11:47.624Z,98708.33
2018-08-19T02:13:23.782Z,98546.56
2018-08-19T02:14:59.176Z,98374.72
2018-08-19T02:16:34.746Z,98174.74
2018-08-19T02:18:10.322Z,98045.80
2018-08-19T02:19:46.415Z,97955.50
2018-08-19T02:21:21.694Z,97869.89
2018-08-19T02:22:59.978Z,97860.59
2018-08-19T02:24:36.217Z,97829.09
2018-08-19T02:26:12.289Z,97835.69
2018-08-19T02:27:49.831Z,97882.58
2018-08-19T02:29:35.769Z,97870.22
2018-08-19T02:31:11.475Z,97929.59
2018-08-19T02:32:46.734Z,98058.30
2018-08-19T02:34:26.381Z,98152.84
2018-08-19T02:36:06.000Z,98238.48
2018-08-19T02:37:41.607Z,98238.23
2018-08-19T02:39:17.968Z,98196.27
2018-08-19T02:40:55.503Z,98223.69
2018-08-19T02:42:32.311Z,98164.70
2018-08-19T02:44:08.216Z,98052.66
2018-08-19T02:45:43.656Z,98020.66
2018-08-19T02:47:19.126Z,97899.59
2018-08-19T02:48:56.083Z,97768.30
2018-08-19T02:50:31.500Z,97673.12
2018-08-19T02:52:09.206Z,97596.94
2018-08-19T02:53:45.860Z,97550.14
2018-08-19T02:55:21.526Z,97497.12
2018-08-19T02:56:57.382Z,97451.55
2018-08-19T02:58:34.506Z,97401.09
2018-08-19T03:00:13.237Z,97361.05
2018-08-19T03:01:49.857Z,97311.63
2018-08-19T03:03:25.580Z,97297.65
2018-08-19T03:05:03.505Z,97260.88
2018-08-19T03:06:38.853Z,97282.78
2018-08-19T03:08:16.769Z,97304.55
2018-08-19T03:10:01.598Z,97309.44
2018-08-19T03:11:37.282Z,97331.84
2018-08-19T03:13:12.586Z,97354.11
2018-08-19T03:14:48.013Z,97363.73
2018-08-19T03:16:23.967Z,97339.27
2018-08-19T03:18:00.660Z,97369.11
2018-08-19T03:19:35.959Z,97424.28
2018-08-19T03:21:11.211Z,97530.16
2018-08-19T03:22:47.112Z,97604.64
2018-08-19T03:24:23.043Z,97567.97
2018-08-19T03:25:59.518Z,97507.88
2018-08-19T03:27:34.766Z,97522.03
2018-08-19T03:29:14.262Z,97576.23
2018-08-19T03:30:54.285Z,97541.41
2018-08-19T03:32:29.900Z,97478.42
2018-08-19T03:34:06.521Z,97442.34
2018-08-19T03:35:42.318Z,97476.23
2018-08-19T03:37:20.854Z,97475.38
2018-08-19T03:39:02.187Z,97437.46
2018-08-19T03:40:37.549Z,97421.50
2018-08-19T03:42:15.482Z,97392.50
2018-08-19T03:43:59.406Z,97405.31
2018-08-19T03:45:35.344Z,97380.84
2018-08-19T03:47:19.776Z,97393.16
2018-08-19T03:48:55.261Z,97386.44
2018-08-19T03:50:31.094Z,97385.36
2018-08-19T03:52:06.643Z,97380.48
2018-08-19T03:53:43.745Z,97383.89
2018-08-19T03:55:24.370Z,97362.59
2018-08-19T03:57:00.090Z,97342.52
2018-08-19T03:58:35.549Z,97295.30
2018-08-19T04:00:14.947Z,97280.10
2018-08-19T04:01:56.214Z,97264.26
2018-08-19T04:03:32.560Z,97236.30
2018-08-19T04:05:08.476Z,97241.18
2018-08-19T04:06:45.764Z,97243.86
2018-08-19T04:08:22.079Z,97264.91
2018-08-19T04:09:57.725Z,97290.22
2018-08-19T04:11:33.384Z,97328.80
2018-08-19T04:13:33.161Z,97403.55
2018-08-19T04:15:15.993Z,97508.71
2018-08-19T04:16:51.387Z,97613.39
2018-08-19T04:18:32.385Z,97673.89
2018-08-19T04:20:08.443Z,97786.98
2018-08-19T04:21:43.623Z,97783.92
2018-08-19T04:23:19.694Z,97691.08
2018-08-19T04:24:55.379Z,97576.23
2018-08-19T04:26:33.028Z,97531.27
2018-08-19T04:28:09.457Z,97543.92
2018-08-19T04:29:44.670Z,97622.44
2018-08-19T04:31:25.162Z,97670.11
2018-08-19T04:33:00.516Z,97747.34
2018-08-19T04:34:36.405Z,97783.84
2018-08-19T04:36:15.248Z,97676.47
2018-08-19T04:37:50.439Z,97544.94
2018-08-19T04:39:36.699Z,97426.38
2018-08-19T04:41:16.657Z,97328.99
2018-08-19T04:42:51.797Z,97242.72
2018-08-19T04:44:51.248Z,97189.80
2018-08-19T04:46:39.241Z,97167.20
2018-08-19T04:48:16.793Z,97120.48
2018-08-19T04:49:53.985Z,97078.92
2018-08-19T04:51:30.851Z,97071.98
2018-08-19T04:53:06.590Z,97059.73
2018-08-19T04:54:43.777Z,97041.52
2018-08-19T04:56:20.115Z,97022.16
2018-08-19T04:57:55.533Z,97047.56
2018-08-19T04:59:31.238Z,97071.63
2018-08-19T05:01:08.239Z,97083.92
2018-08-19T05:02:43.626Z,97120.66
2018-08-19T05:04:20.365Z,97146.78
2018-08-19T05:05:58.153Z,97194.45
2018-08-19T05:07:33.687Z,97230.35
2018-08-19T05:09:10.878Z,97270.97
2018-08-19T05:10:46.319Z,97327.45
2018-08-19T05:12:24.383Z,97367.38
2018-08-19T05:14:00.486Z,97397.94
2018-08-19T05:15:36.079Z,97471.50
2018-08-19T05:18:54.313Z,97663.01
2018-08-19T05:20:30.471Z,97713.02
2018-08-19T05:22:11.801Z,97754.24
2018-08-19T05:23:47.667Z,97807.83
2018-08-19T05:25:23.885Z,97868.36
2018-08-19T05:27:04.128Z,97865.34
2018-08-19T05:28:39.496Z,97876.80
2018-08-19T05:30:17.093Z,97903.58
2018-08-19T05:31:57.627Z,97947.53
2018-08-19T05:33:33.329Z,97982.25
2018-08-19T05:35:08.864Z,97991.55
2018-08-19T05:36:44.037Z,97966.50
2018-08-19T05:38:19.770Z,97897.13
2018-08-19T05:39:59.470Z,97854.61
2018-08-19T05:41:35.595Z,97838.84
2018-08-19T05:43:10.789Z,97861.34
2018-08-19T05:44:47.688Z,97887.20
2018-08-19T05:46:23.406Z,97928.16
2018-08-19T05:48:12.249Z,97971.03
2018-08-19T05:49:49.382Z,98058.02
2018-08-19T05:51:25.307Z,98133.20
2018-08-19T05:53:02.486Z,98232.16
2018-08-19T05:54:43.186Z,98352.75
2018-08-19T05:56:18.376Z,98489.34
2018-08-19T05:57:55.064Z,98596.47
2018-08-19T05:59:30.405Z,98638.43
2018-08-19T06:01:05.880Z,98718.75
2018-08-19T06:02:43.085Z,98706.86
2018-08-19T06:04:18.332Z,98739.85
2018-08-19T06:05:55.034Z,98720.09
2018-08-19T06:07:30.879Z,98710.91
2018-08-19T06:09:07.587Z,98861.02
2018-08-19T06:10:44.097Z,98960.91
2018-08-19T06:12:21.636Z,99025.56
2018-08-19T06:13:58.844Z,98986.59
2018-08-19T06:15:35.671Z,98899.44
2018-08-19T06:17:12.471Z,98892.09
2018-08-19T06:18:48.938Z,98945.56
2018-08-19T06:20:25.730Z,98949.61
2018-08-19T06:22:01.291Z,99020.00
2018-08-19T06:23:38.805Z,99019.14
2018-08-19T06:25:14.430Z,99064.13
2018-08-19T06:26:50.433Z,99101.27
2018-08-19T06:28:25.885Z,99198.17
2018-08-19T06:30:02.113Z,99247.38
2018-08-19T06:31:37.466Z,99274.27
2018-08-19T06:33:14.485Z,99320.14
2018-08-19T06:34:54.828Z,99515.38
2018-08-19T06:36:39.010Z,99889.97
2018-08-19T06:38:15.277Z,100070.87
2018-08-19T06:39:51.817Z,100176.94
2018-08-19T06:41:28.577Z,100239.33
2018-08-19T06:43:05.641Z,100233.51
2018-08-19T06:44:41.964Z,100298.60
2018-08-19T06:46:19.613Z,100365.56
2018-08-19T06:47:55.502Z,100579.53
2018-08-19T06:49:33.542Z,100693.84
2018-08-19T06:51:09.458Z,100808.03
2018-08-19T06:52:47.676Z,100813.88
2018-08-19T06:54:22.952Z,100839.02
2018-08-19T06:56:00.221Z,100883.25
2018-08-19T06:57:35.541Z,100906.95
2018-08-19T06:59:13.125Z,100957.59
2018-08-19T07:00:53.486Z,100975.85
2018-08-19T07:02:32.357Z,100981.30
2018-08-19T07:04:11.915Z,100901.22
2018-08-19T07:06:04.305Z,100914.25
2018-08-19T07:07:50.533Z,100863.25
2018-08-19T07:09:28.479Z,100858.28
2018-08-19T07:11:05.050Z,100824.38
2018-08-19T07:12:41.406Z,100921.45
2018-08-19T07:14:17.479Z,100963.42
2018-08-19T07:15:53.788Z,100896.88
2018-08-19T07:17:29.851Z,100791.83
2018-08-19T07:19:06.634Z,100809.72
2018-08-19T07:20:43.910Z,100790.95
2018-08-19T07:22:22.636Z,100828.45
2018-08-19T07:24:00.020Z,100851.28
2018-08-19T07:25:36.725Z,100804.77
2018-08-19T07:27:14.045Z,100847.20
2018-08-19T07:28:50.067Z,100809.72
2018-08-19T07:30:26.618Z,100744.91
2018-08-19T07:32:02.706Z,100748.11
2018-08-19T07:33:39.583Z,100751.61
2018-08-19T07:35:16.665Z,100778.80
2018-08-19T07:36:55.623Z,100743.55
2018-08-19T07:38:33.484Z,100699.77
2018-08-19T07:40:17.710Z,100458.53
2018-08-19T07:41:53.386Z,100325.78
2018-08-19T07:43:31.170Z,100429.93
2018-08-19T07:45:09.556Z,100382.23
2018-08-19T07:46:45.644Z,100326.52
2018-08-19T07:48:20.955Z,100360.43
2018-08-19T07:49:57.099Z,100395.52
2018-08-19T07:51:32.382Z,100266.78
2018-08-19T07:53:08.186Z,100355.48
2018-08-19T07:54:48.592Z,100463.25
2018-08-19T07:56:23.786Z,100465.86
2018-08-19T07:57:59.076Z,100386.10
2018-08-19T07:59:35.493Z,100373.72
2018-08-19T08:01:12.122Z,100381.64
2018-08-19T08:02:50.037Z,100322.44
2018-08-19T08:04:33.425Z,100310.34
2018-08-19T08:06:09.054Z,100303.16
2018-08-19T08:07:48.439Z,100323.20
2018-08-19T08:09:25.690Z,100361.59
2018-08-19T08:11:00.978Z,100410.90
2018-08-19T08:12:37.191Z,100491.16
2018-08-19T08:14:15.615Z,100540.75
2018-08-19T08:15:55.487Z,100547.80
2018-08-19T08:17:32.621Z,100562.08
2018-08-19T08:19:08.033Z,100560.72
2018-08-19T08:20:44.210Z,100581.27
2018-08-19T08:22:28.250Z,100572.34
2018-08-19T08:24:05.474Z,100438.39
2018-08-19T08:25:42.129Z,100365.42
2018-08-19T08:27:18.159Z,100423.67
2018-08-19T08:29:00.183Z,100488.34
2018-08-19T08:30:36.698Z,100558.73
2018-08-19T08:32:14.315Z,100545.47
2018-08-19T08:33:50.627Z,100605.61
2018-08-19T08:35:32.945Z,100720.59
2018-08-19T08:37:10.467Z,100802.87
2018-08-19T08:38:52.252Z,100711.02
2018-08-19T08:40:31.681Z,100807.35
2018-08-19T08:42:09.781Z,100981.56
2018-08-19T08:43:46.361Z,101076.40
2018-08-19T08:45:28.355Z,101089.94
2018-08-19T08:47:11.675Z,101070.16
2018-08-19T08:48:49.738Z,100990.62
2018-08-19T08:50:27.244Z,100811.30
2018-08-19T08:52:25.060Z,100792.95
2018-08-19T08:54:09.846Z,100720.59
2018-08-19T08:55:56.184Z,100784.02
2018-08-19T08:57:40.639Z,100901.48
2018-08-19T08:59:31.718Z,100974.75
2018-08-19T09:01:12.554Z,100913.99
2018-08-19T09:02:48.575Z,100837.92
2018-08-19T09:04:23.871Z,100906.20
2018-08-19T09:06:00.523Z,100905.05
2018-08-19T09:07:36.801Z,100940.23
2018-08-19T09:09:14.515Z,100970.66
2018-08-19T09:10:50.311Z,100775.36
2018-08-19T09:12:41.984Z,100846.73
2018-08-19T09:14:19.471Z,100896.77
2018-08-19T09:16:00.064Z,100852.58
2018-08-19T09:17:37.314Z,100747.58
2018-08-19T09:19:19.747Z,100664.06
2018-08-19T09:20:56.414Z,100624.38
2018-08-19T09:22:34.962Z,100735.49
2018-08-19T09:24:12.537Z,100693.47
2018-08-19T09:25:55.223Z,100674.75
2018-08-19T09:27:32.262Z,100695.22
2018-08-19T09:29:09.893Z,100722.75
2018-08-19T09:30:45.967Z,100647.47
2018-08-19T09:32:30.143Z,100706.66
2018-08-19T09:34:10.200Z,100725.96
2018-08-19T09:35:46.492Z,100871.99
2018-08-19T09:37:26.198Z,100905.01
2018-08-19T09:39:02.521Z,100886.27
2018-08-19T09:40:41.266Z,100819.59
2018-08-19T09:42:19.388Z,100715.00
2018-08-19T09:43:54.708Z,100727.65
2018-08-19T09:45:30.395Z,100805.33
2018-08-19T09:47:05.839Z,100819.11
2018-08-19T09:48:41.502Z,100757.07
2018-08-19T09:50:19.532Z,100782.02
2018-08-19T09:51:56.971Z,100859.25
2018-08-19T09:53:34.602Z,100914.25
2018-08-19T09:55:13.354Z,100971.87
2018-08-19T09:56:50.834Z,101025.58
2018-08-19T09:58:26.760Z,101117.31
2018-08-19T10:00:05.502Z,101172.17
2018-08-19T10:01:50.311Z,101196.41
2018-08-19T10:03:26.307Z,101086.38
2018-08-19T10:05:03.959Z,101024.50
2018-08-19T10:06:40.806Z,100981.21
2018-08-19T10:08:16.457Z,100973.63
2018-08-19T10:09:52.484Z,100950.68
2018-08-19T10:11:27.872Z,100972.06
2018-08-19T10:13:04.678Z,101007.37
2018-08-19T10:14:41.122Z,100872.80
2018-08-19T10:16:21.314Z,100804.91
2018-08-19T10:17:56.871Z,100864.27
2018-08-19T10:19:34.122Z,100925.47
2018-08-19T10:21:18.827Z,100877.17
2018-08-19T10:22:58.676Z,100801.20
2018-08-19T10:24:36.260Z,100736.80
2018-08-19T10:26:14.848Z,100714.09
2018-08-19T10:27:51.842Z,100686.42
2018-08-19T10:29:27.749Z,100545.41
2018-08-19T10:31:04.057Z,100462.02
2018-08-19T10:32:39.809Z,100406.37
2018-08-19T10:34:15.490Z,100359.42
2018-08-19T10:35:51.017Z,100408.98
2018-08-19T10:37:27.314Z,100515.44
2018-08-19T10:39:09.773Z,100627.75
2018-08-19T10:40:54.732Z,100732.61
2018-08-19T10:42:31.911Z,100746.48
2018-08-19T10:44:07.424Z,100772.41
2018-08-19T10:45:47.515Z,100844.67
2018-08-19T10:47:26.742Z,100894.72
2018-08-19T10:49:04.185Z,100986.44
2018-08-19T10:50:45.573Z,101011.52
2018-08-19T10:52:27.625Z,101066.86
2018-08-19T10:54:03.654Z,100710.16
2018-08-19T10:55:40.402Z,100419.91
2018-08-19T10:57:21.737Z,100444.05
2018-08-19T10:59:00.753Z,100682.88
2018-08-19T11:00:37.089Z,100811.05
2018-08-19T11:02:12.550Z,100980.88
2018-08-19T11:03:48.704Z,101058.69
2018-08-19T11:05:24.752Z,101119.95
2018-08-19T11:07:00.455Z,101160.65
2018-08-19T11:08:37.330Z,101072.09
2018-08-19T11:10:21.232Z,100955.31
2018-08-19T11:11:57.645Z,100828.33
2018-08-19T11:13:33.376Z,100768.91
2018-08-19T11:15:28.306Z,100797.95
2018-08-19T11:17:03.891Z,100809.48
2018-08-19T11:18:44.568Z,100872.43
2018-08-19T11:20:25.344Z,100931.56
2018-08-19T11:22:01.920Z,100986.88
2018-08-19T11:23:40.067Z,101015.48
2018-08-19T11:25:20.561Z,100963.16
2018-08-19T11:27:02.636Z,101020.93
2018-08-19T11:28:46.596Z,101015.48
2018-08-19T11:30:24.604Z,100755.39
2018-08-19T11:32:00.324Z,100550.18
2018-08-19T11:33:43.355Z,100712.44
2018-08-19T11:35:21.157Z,100727.12
2018-08-19T11:36:56.514Z,100694.98
2018-08-19T11:38:39.486Z,100719.15
2018-08-19T11:40:17.500Z,100767.70
2018-08-19T11:42:02.164Z,100680.09
2018-08-19T11:43:49.059Z,100669.93
2018-08-19T11:45:52.102Z,100830.27
2018-08-19T11:47:49.708Z,101008.53
2018-08-19T11:49:30.639Z,101059.14
2018-08-19T11:51:06.531Z,101043.45
2018-08-19T11:52:45.150Z,100964.09
2018-08-19T11:54:24.514Z,100935.13
2018-08-19T11:56:00.812Z,100956.12
2018-08-19T11:57:36.465Z,101026.84
2018-08-19T11:59:16.211Z,101112.22
2018-08-19T12:00:57.571Z,101123.33
2018-08-19T12:02:32.815Z,101199.09
2018-08-19T12:04:13.004Z,101066.99
2018-08-19T12:05:49.500Z,100854.23
2018-08-19T12:07:25.440Z,100852.77
2018-08-19T12:09:04.609Z,100894.37
2018-08-19T12:10:41.636Z,100933.17
2018-08-19T12:12:18.800Z,100872.38
2018-08-19T12:13:54.899Z,100842.34
2018-08-19T12:15:30.352Z,100867.32
2018-08-19T12:17:11.796Z,100921.50
2018-08-19T12:18:51.533Z,100969.81
2018-08-19T12:20:35.250Z,101081.56
2018-08-19T12:22:11.460Z,101152.20
2018-08-19T12:23:50.513Z,101175.02
2018-08-19T12:25:25.846Z,101222.03
2018-08-19T12:27:02.733Z,101202.76
2018-08-19T12:28:41.569Z,101229.73
2018-08-19T12:30:19.879Z,101214.52
2018-08-19T12:32:14.619Z,101230.90
2018-08-19T12:33:50.408Z,101292.23
2018-08-19T12:35:25.865Z,101348.25
2018-08-19T12:37:01.706Z,101337.91
2018-08-19T12:38:37.908Z,101259.98
2018-08-19T12:40:14.274Z,101229.02
2018-08-19T12:41:54.154Z,101204.88
2018-08-19T12:43:30.619Z,101161.47
2018-08-19T12:45:10.006Z,101135.45
2018-08-19T12:47:04.195Z,101089.42
2018-08-19T12:48:41.073Z,101232.52
2018-08-19T12:50:16.752Z,101320.88
2018-08-19T12:51:54.028Z,101343.57
2018-08-19T12:53:29.412Z,101364.22
2018-08-19T12:55:09.333Z,101330.11
2018-08-19T12:56:46.634Z,101343.18
2018-08-19T12:58:21.959Z,101360.52
2018-08-19T13:00:32.322Z,101421.17
2018-08-19T13:02:20.397Z,101481.20
2018-08-19T13:03:56.830Z,101478.47
2018-08-19T13:05:32.497Z,101465.91
2018-08-19T13:07:15.023Z,101446.49
2018-08-19T13:08:50.491Z,101490.97
2018-08-19T13:10:37.268Z,101453.22
2018-08-19T13:12:14.621Z,101462.70
2018-08-19T13:13:50.284Z,101424.08
2018-08-19T13:15:32.561Z,101449.62
2018-08-19T13:17:09.750Z,101427.20
2018-08-19T13:18:46.922Z,101401.08
2018-08-19T13:20:23.133Z,101403.81
2018-08-19T13:21:59.339Z,101388.09
2018-08-19T13:23:35.287Z,101348.22
2018-08-19T13:25:11.593Z,101183.33
2018-08-19T13:26:47.793Z,101280.11
2018-08-19T13:28:23.764Z,101299.33
2018-08-19T13:29:59.048Z,101334.18
2018-08-19T13:31:36.623Z,101348.97
2018-08-19T13:33:12.598Z,101319.88
2018-08-19T13:34:48.035Z,101322.47
2018-08-19T13:36:23.304Z,101314.41
2018-08-19T13:37:58.749Z,101392.89
2018-08-19T13:39:34.268Z,101480.30
2018-08-19T13:41:10.330Z,101488.31
2018-08-19T13:42:46.465Z,101409.83
2018-08-19T13:44:21.722Z,101444.32
2018-08-19T13:45:59.118Z,101464.52
2018-08-19T13:47:36.783Z,101436.61
2018-08-19T13:49:12.932Z,101464.03
2018-08-19T13:50:51.831Z,101467.62
2018-08-19T13:52:27.906Z,101476.59
2018-08-19T13:54:04.999Z,101502.05
2018-08-19T13:55:40.327Z,101506.15
2018-08-19T13:57:16.617Z,101512.01
2018-08-19T13:58:52.294Z,101492.19
2018-08-19T14:00:33.855Z,101506.06
2018-08-19T14:02:09.224Z,101519.98
2018-08-19T14:03:45.923Z,101586.30
2018-08-19T14:05:24.057Z,101579.59
2018-08-19T14:07:03.550Z,101601.55
2018-08-19T14:08:39.509Z,101604.28
2018-08-19T14:10:17.444Z,101592.07
2018-08-19T14:11:55.346Z,101590.22
2018-08-19T14:13:32.088Z,101490.63
2018-08-19T14:15:21.822Z,101481.16
2018-08-19T14:16:57.617Z,101575.01
2018-08-19T14:18:34.509Z,101633.27
2018-08-19T14:20:11.664Z,101605.85
2018-08-19T14:21:54.280Z,101612.11
2018-08-19T14:23:30.068Z,101600.38
2018-08-19T14:25:06.444Z,101606.25
2018-08-19T14:26:44.688Z,101547.86
2018-08-19T14:28:20.773Z,101558.61
2018-08-19T14:31:55.794Z,101677.97
2018-08-19T14:33:33.273Z,101716.52
2018-08-19T14:35:09.535Z,101748.85
2018-08-19T14:36:46.604Z,101724.23
2018-08-19T14:38:28.314Z,101718.77
2018-08-19T14:40:07.553Z,101773.95
2018-08-19T14:41:50.262Z,101789.17
2018-08-19T14:43:27.107Z,101764.20
2018-08-19T14:45:05.213Z,101768.57
2018-08-19T14:46:55.655Z,101833.61
2018-08-19T14:48:40.529Z,101915.84
2018-08-19T14:50:30.118Z,101907.84
2018-08-19T14:52:06.843Z,101831.30
2018-08-19T14:53:46.155Z,101777.83
2018-08-19T14:55:23.193Z,101810.17
2018-08-19T14:56:58.718Z,101700.98
2018-08-19T14:58:34.020Z,101677.75
2018-08-19T15:00:16.377Z,101611.70
2018-08-19T15:01:54.660Z,101692.03
2018-08-19T15:03:44.284Z,101705.88
2018-08-19T15:05:24.751Z,101783.52
2018-08-19T15:07:02.748Z,101789.87
2018-08-19T15:08:39.583Z,101776.28
2018-08-19T15:10:26.375Z,101824.37
2018-08-19T15:12:16.314Z,101660.36
2018-08-19T15:13:57.185Z,101532.99
2018-08-19T15:15:34.640Z,101522.67
2018-08-19T15:18:55.176Z,101434.70
2018-08-19T15:20:36.656Z,101514.86
2018-08-19T15:22:12.298Z,101645.94
2018-08-19T15:23:49.362Z,101715.53
2018-08-19T15:25:26.509Z,101730.75
2018-08-19T15:27:03.475Z,101624.73
2018-08-19T15:28:42.998Z,101549.31
2018-08-19T15:30:26.234Z,101518.73
2018-08-19T15:32:08.355Z,101480.23
2018-08-19T15:33:43.904Z,101508.03
2018-08-19T15:35:19.761Z,101473.79
2018-08-19T15:36:56.263Z,101531.34
2018-08-19T15:38:31.591Z,101487.23
2018-08-19T15:40:09.312Z,101397.16
2018-08-19T15:41:47.356Z,101386.32
2018-08-19T15:43:24.550Z,101455.82
2018-08-19T15:45:00.763Z,101411.86
2018-08-19T15:46:37.159Z,101378.81
2018-08-19T15:48:13.360Z,101466.08
2018-08-19T15:49:55.577Z,101595.27
2018-08-19T15:51:33.664Z,101669.83
2018-08-19T15:53:15.823Z,101737.58
2018-08-19T15:55:00.014Z,101768.05
2018-08-19T15:56:49.599Z,101649.98
2018-08-19T15:58:32.132Z,101695.02
2018-08-19T16:00:17.769Z,101645.03
2018-08-19T16:01:56.619Z,101689.14
2018-08-19T16:03:33.583Z,101750.94
2018-08-19T16:05:14.740Z,101813.98
2018-08-19T16:06:53.202Z,101676.83
2018-08-19T16:08:28.655Z,101660.25
2018-08-19T16:10:04.574Z,101619.47
2018-08-19T16:11:41.459Z,101782.04
2018-08-19T16:13:18.679Z,101799.91
2018-08-19T16:14:55.422Z,101812.03
2018-08-19T16:16:32.779Z,101816.41
2018-08-19T16:18:09.593Z,101745.47
2018-08-19T16:19:45.820Z,101687.10
2018-08-19T16:21:23.940Z,101678.98
2018-08-19T16:23:01.215Z,101734.16
2018-08-19T16:24:40.032Z,101713.04
2018-08-19T16:26:15.437Z,101722.52
2018-08-19T16:27:57.174Z,101637.58
2018-08-19T16:29:32.511Z,101684.36
2018-08-19T16:31:09.145Z,101693.72
2018-08-19T16:32:45.278Z,101682.47
2018-08-19T16:34:21.399Z,101678.01
2018-08-19T16:35:56.765Z,101659.05
2018-08-19T16:37:32.687Z,101735.01
2018-08-19T16:39:11.298Z,101800.11
2018-08-19T16:40:47.680Z,101787.98
2018-08-19T16:42:23.555Z,101849.94
2018-08-19T16:43:59.986Z,101872.41
2018-08-19T16:45:47.947Z,101888.13
2018-08-19T16:47:36.799Z,101867.42
2018-08-19T16:49:22.051Z,101872.81
2018-08-19T16:50:59.406Z,101685.90
2018-08-19T16:52:36.570Z,101730.91
2018-08-19T16:54:13.572Z,101759.56
2018-08-19T16:55:49.752Z,101770.80
2018-08-19T16:57:25.887Z,101783.48
2018-08-19T17:00:33.319Z,101825.58
2018-08-19T17:02:09.278Z,101773.91
2018-08-19T17:03:45.571Z,101611.33
2018-08-19T17:05:33.903Z,101614.95
2018-08-19T17:07:13.196Z,101686.16
2018-08-19T17:08:49.340Z,101713.64
2018-08-19T17:10:25.679Z,101686.16
2018-08-19T17:12:01.983Z,101671.44
2018-08-19T17:13:37.198Z,101695.06
2018-08-19T17:15:22.249Z,101687.53
2018-08-19T17:17:02.266Z,101675.44
2018-08-19T17:18:41.804Z,101638.14
2018-08-19T17:20:23.295Z,101593.25
2018-08-19T17:22:01.099Z,101643.91
2018-08-19T17:23:42.479Z,101689.30
2018-08-19T17:25:24.764Z,101680.69
2018-08-19T17:27:05.697Z,101622.44
2018-08-19T17:28:43.475Z,101628.30
2018-08-19T17:30:19.477Z,101664.50
2018-08-19T17:31:58.685Z,101695.94
2018-08-19T17:33:36.367Z,101707.16
2018-08-19T17:35:14.337Z,101602.11
2018-08-19T17:36:51.640Z,101600.88
2018-08-19T17:38:37.318Z,101644.78
2018-08-19T17:40:12.676Z,101566.22
2018-08-19T17:41:51.304Z,101585.92
2018-08-19T17:43:32.273Z,101638.04
2018-08-19T17:45:10.697Z,101745.78
2018-08-19T17:46:47.681Z,101756.23
2018-08-19T17:48:23.829Z,101710.67
2018-08-19T17:49:59.984Z,101573.71
2018-08-19T17:51:37.760Z,101594.78
2018-08-19T17:53:16.199Z,101619.97
2018-08-19T17:54:53.836Z,101604.75
2018-08-19T17:56:31.425Z,101623.31
2018-08-19T17:58:09.439Z,101645.17
2018-08-19T17:59:51.339Z,101641.43
2018-08-19T18:01:29.139Z,101652.28
2018-08-19T18:03:05.935Z,101619.87
2018-08-19T18:04:47.778Z,101546.78
2018-08-19T18:06:24.555Z,101433.34
2018-08-19T18:08:00.939Z,101444.92
2018-08-19T18:11:20.032Z,101614.49
2018-08-19T18:12:56.974Z,101623.48
2018-08-19T18:14:34.674Z,101635.60
2018-08-19T18:16:12.681Z,101636.48
2018-08-19T18:18:02.012Z,101606.41
2018-08-19T18:19:42.274Z,101589.31
2018-08-19T18:21:19.758Z,101528.25
2018-08-19T18:22:56.968Z,101409.55
2018-08-19T18:24:32.931Z,101435.09
2018-08-19T18:26:11.983Z,101424.25
2018-08-19T18:27:48.752Z,101389.34
2018-08-19T18:29:26.024Z,101451.17
2018-08-19T18:33:02.469Z,101434.57
2018-08-19T18:34:43.205Z,101404.08
2018-08-19T18:36:20.902Z,101500.06
2018-08-19T18:37:58.306Z,101486.58
2018-08-19T18:39:33.721Z,101448.44
2018-08-19T18:41:09.352Z,101439.94
2018-08-19T18:42:44.916Z,101451.17
2018-08-19T18:44:22.814Z,101447.95
2018-08-19T18:45:58.679Z,101527.24
2018-08-19T18:47:37.096Z,101547.08
2018-08-19T18:49:15.692Z,101475.00
2018-08-19T18:50:56.570Z,101488.83
2018-08-19T18:52:37.029Z,101522.88
2018-08-19T18:54:21.951Z,101553.42
2018-08-19T18:55:57.228Z,101551.08
2018-08-19T18:57:38.809Z,101554.80
2018-08-19T18:59:14.751Z,101522.88
2018-08-19T19:00:57.925Z,101462.30
2018-08-19T19:02:34.662Z,101415.27